sensor_id;sensor_type;location;lat;lon;timestamp;P1;durP1;ratioP1;P2;durP2;ratioP2
7903;SDS011;3997;48.416;8.512;2023-02-04T00:01:33;0.32;;;0.32;;
7903;SDS011;3997;48.416;8.512;2023-02-04T00:04:01;0.40;;;0.40;;
7903;SDS011;3997;48.416;8.512;2023-02-04T00:06:27;0.25;;;0.25;;
7903;SDS011;3997;48.416;8.512;2023-02-04T00:08:54;0.38;;;0.38;;
7903;SDS011;3997;48.416;8.512;2023-02-04T00:11:20;0.68;;;0.40;;
7903;SDS011;3997;48.416;8.512;2023-02-04T00:13:47;0.40;;;0.38;;
7903;SDS011;3997;48.416;8.512;2023-02-04T00:16:13;1.02;;;0.88;;
7903;SDS011;3997;48.416;8.512;2023-02-04T00:18:39;0.93;;;0.88;;
7903;SDS011;3997;48.416;8.512;2023-02-04T00:21:07;0.55;;;0.55;;
7903;SDS011;3997;48.416;8.512;2023-02-04T00:23:34;1.02;;;0.93;;
7903;SDS011;3997;48.416;8.512;2023-02-04T00:26:00;1.35;;;1.33;;
7903;SDS011;3997;48.416;8.512;2023-02-04T00:28:26;1.63;;;1.52;;
7903;SDS011;3997;48.416;8.512;2023-02-04T00:30:53;3.53;;;2.53;;
7903;SDS011;3997;48.416;8.512;2023-02-04T00:33:19;3.30;;;2.38;;
7903;SDS011;3997;48.416;8.512;2023-02-04T00:35:46;3.75;;;3.53;;
7903;SDS011;3997;48.416;8.512;2023-02-04T00:38:14;1.30;;;1.17;;
7903;SDS011;3997;48.416;8.512;2023-02-04T00:40:40;1.65;;;1.27;;
7903;SDS011;3997;48.416;8.512;2023-02-04T00:43:06;2.45;;;1.42;;
7903;SDS011;3997;48.416;8.512;2023-02-04T00:45:33;6.53;;;6.13;;
7903;SDS011;3997;48.416;8.512;2023-02-04T00:47:59;3.22;;;2.30;;
7903;SDS011;3997;48.416;8.512;2023-02-04T00:50:26;4.22;;;3.67;;
7903;SDS011;3997;48.416;8.512;2023-02-04T00:52:52;4.55;;;4.15;;
7903;SDS011;3997;48.416;8.512;2023-02-04T00:55:20;3.05;;;2.70;;
7903;SDS011;3997;48.416;8.512;2023-02-04T00:57:46;4.03;;;2.78;;
7903;SDS011;3997;48.416;8.512;2023-02-04T01:00:13;2.28;;;2.08;;
7903;SDS011;3997;48.416;8.512;2023-02-04T01:02:40;3.67;;;2.08;;
7903;SDS011;3997;48.416;8.512;2023-02-04T01:05:07;2.75;;;2.10;;
7903;SDS011;3997;48.416;8.512;2023-02-04T01:07:33;3.05;;;2.60;;
7903;SDS011;3997;48.416;8.512;2023-02-04T01:09:59;2.50;;;2.30;;
7903;SDS011;3997;48.416;8.512;2023-02-04T01:12:27;10.00;;;9.50;;
7903;SDS011;3997;48.416;8.512;2023-02-04T01:14:54;5.03;;;2.70;;
7903;SDS011;3997;48.416;8.512;2023-02-04T01:17:20;4.68;;;4.38;;
7903;SDS011;3997;48.416;8.512;2023-02-04T01:19:47;2.72;;;2.33;;
7903;SDS011;3997;48.416;8.512;2023-02-04T01:22:13;2.50;;;2.30;;
7903;SDS011;3997;48.416;8.512;2023-02-04T01:24:40;6.53;;;6.13;;
7903;SDS011;3997;48.416;8.512;2023-02-04T01:27:06;3.55;;;2.92;;
7903;SDS011;3997;48.416;8.512;2023-02-04T01:29:34;4.05;;;2.83;;
7903;SDS011;3997;48.416;8.512;2023-02-04T01:32:00;4.63;;;2.92;;
7903;SDS011;3997;48.416;8.512;2023-02-04T01:34:27;1.83;;;1.63;;
7903;SDS011;3997;48.416;8.512;2023-02-04T01:36:55;4.38;;;3.30;;
7903;SDS011;3997;48.416;8.512;2023-02-04T01:39:21;2.70;;;2.50;;
7903;SDS011;3997;48.416;8.512;2023-02-04T01:41:48;3.08;;;2.78;;
7903;SDS011;3997;48.416;8.512;2023-02-04T01:44:14;2.83;;;2.03;;
7903;SDS011;3997;48.416;8.512;2023-02-04T01:46:42;3.65;;;2.08;;
7903;SDS011;3997;48.416;8.512;2023-02-04T01:49:09;8.75;;;8.32;;
7903;SDS011;3997;48.416;8.512;2023-02-04T01:51:36;7.13;;;6.78;;
7903;SDS011;3997;48.416;8.512;2023-02-04T01:54:02;10.88;;;10.30;;
7903;SDS011;3997;48.416;8.512;2023-02-04T01:56:29;1.85;;;1.20;;
7903;SDS011;3997;48.416;8.512;2023-02-04T01:58:56;1.42;;;1.33;;
7903;SDS011;3997;48.416;8.512;2023-02-04T02:01:33;1.10;;;1.00;;
7903;SDS011;3997;48.416;8.512;2023-02-04T02:04:01;1.08;;;0.98;;
7903;SDS011;3997;48.416;8.512;2023-02-04T02:06:27;1.75;;;1.20;;
7903;SDS011;3997;48.416;8.512;2023-02-04T02:08:54;1.02;;;0.90;;
7903;SDS011;3997;48.416;8.512;2023-02-04T02:11:22;1.00;;;0.90;;
7903;SDS011;3997;48.416;8.512;2023-02-04T02:13:48;7.43;;;7.10;;
7903;SDS011;3997;48.416;8.512;2023-02-04T02:16:15;0.70;;;0.70;;
7903;SDS011;3997;48.416;8.512;2023-02-04T02:18:42;15.38;;;14.77;;
7903;SDS011;3997;48.416;8.512;2023-02-04T02:21:11;7.40;;;7.05;;
7903;SDS011;3997;48.416;8.512;2023-02-04T02:23:47;1.30;;;0.63;;
7903;SDS011;3997;48.416;8.512;2023-02-04T02:26:14;0.45;;;0.45;;
7903;SDS011;3997;48.416;8.512;2023-02-04T02:28:41;8.70;;;8.40;;
7903;SDS011;3997;48.416;8.512;2023-02-04T02:31:08;0.52;;;0.50;;
7903;SDS011;3997;48.416;8.512;2023-02-04T02:33:35;1.10;;;0.40;;
7903;SDS011;3997;48.416;8.512;2023-02-04T02:36:01;0.50;;;0.50;;
7903;SDS011;3997;48.416;8.512;2023-02-04T02:38:28;0.40;;;0.40;;
7903;SDS011;3997;48.416;8.512;2023-02-04T02:40:56;0.95;;;0.95;;
7903;SDS011;3997;48.416;8.512;2023-02-04T02:43:23;23.50;;;22.63;;
7903;SDS011;3997;48.416;8.512;2023-02-04T02:45:50;0.15;;;0.15;;
7903;SDS011;3997;48.416;8.512;2023-02-04T02:48:17;0.35;;;0.30;;
7903;SDS011;3997;48.416;8.512;2023-02-04T02:50:43;12.30;;;11.88;;
7903;SDS011;3997;48.416;8.512;2023-02-04T02:53:10;4.20;;;4.10;;
7903;SDS011;3997;48.416;8.512;2023-02-04T02:55:37;0.32;;;0.32;;
7903;SDS011;3997;48.416;8.512;2023-02-04T02:58:05;0.30;;;0.30;;
7903;SDS011;3997;48.416;8.512;2023-02-04T03:00:36;0.50;;;0.30;;
7903;SDS011;3997;48.416;8.512;2023-02-04T03:03:04;0.20;;;0.20;;
7903;SDS011;3997;48.416;8.512;2023-02-04T03:05:33;0.30;;;0.30;;
7903;SDS011;3997;48.416;8.512;2023-02-04T03:08:01;1.20;;;0.20;;
7903;SDS011;3997;48.416;8.512;2023-02-04T03:10:28;52.03;;;50.13;;
7903;SDS011;3997;48.416;8.512;2023-02-04T03:12:54;0.25;;;0.25;;
7903;SDS011;3997;48.416;8.512;2023-02-04T03:15:22;0.20;;;0.20;;
7903;SDS011;3997;48.416;8.512;2023-02-04T03:17:48;0.73;;;0.55;;
7903;SDS011;3997;48.416;8.512;2023-02-04T03:20:20;0.28;;;0.28;;
7903;SDS011;3997;48.416;8.512;2023-02-04T03:22:47;0.35;;;0.35;;
7903;SDS011;3997;48.416;8.512;2023-02-04T03:25:13;0.93;;;0.93;;
7903;SDS011;3997;48.416;8.512;2023-02-04T03:27:40;1.80;;;1.67;;
7903;SDS011;3997;48.416;8.512;2023-02-04T03:30:06;0.30;;;0.30;;
7903;SDS011;3997;48.416;8.512;2023-02-04T03:32:34;1.15;;;1.15;;
7903;SDS011;3997;48.416;8.512;2023-02-04T03:35:01;0.47;;;0.47;;
7903;SDS011;3997;48.416;8.512;2023-02-04T03:37:27;1.13;;;1.13;;
7903;SDS011;3997;48.416;8.512;2023-02-04T03:39:53;0.22;;;0.22;;
7903;SDS011;3997;48.416;8.512;2023-02-04T03:42:20;0.52;;;0.52;;
7903;SDS011;3997;48.416;8.512;2023-02-04T03:44:46;0.65;;;0.65;;
7903;SDS011;3997;48.416;8.512;2023-02-04T03:47:13;0.82;;;0.82;;
7903;SDS011;3997;48.416;8.512;2023-02-04T03:49:41;1.48;;;0.70;;
7903;SDS011;3997;48.416;8.512;2023-02-04T03:52:07;0.40;;;0.30;;
7903;SDS011;3997;48.416;8.512;2023-02-04T03:54:34;0.38;;;0.38;;
7903;SDS011;3997;48.416;8.512;2023-02-04T03:57:00;0.30;;;0.30;;
7903;SDS011;3997;48.416;8.512;2023-02-04T03:59:26;1.77;;;1.77;;
7903;SDS011;3997;48.416;8.512;2023-02-04T04:01:53;0.98;;;0.98;;
7903;SDS011;3997;48.416;8.512;2023-02-04T04:04:19;0.63;;;0.63;;
7903;SDS011;3997;48.416;8.512;2023-02-04T04:06:47;1.05;;;1.05;;
7903;SDS011;3997;48.416;8.512;2023-02-04T04:09:13;0.82;;;0.82;;
7903;SDS011;3997;48.416;8.512;2023-02-04T04:11:40;0.75;;;0.75;;
7903;SDS011;3997;48.416;8.512;2023-02-04T04:14:06;1.10;;;1.10;;
7903;SDS011;3997;48.416;8.512;2023-02-04T04:16:33;0.88;;;0.88;;
7903;SDS011;3997;48.416;8.512;2023-02-04T04:18:59;2.63;;;2.55;;
7903;SDS011;3997;48.416;8.512;2023-02-04T04:21:26;1.15;;;1.15;;
7903;SDS011;3997;48.416;8.512;2023-02-04T04:23:53;2.15;;;2.05;;
7903;SDS011;3997;48.416;8.512;2023-02-04T04:26:20;1.73;;;1.73;;
7903;SDS011;3997;48.416;8.512;2023-02-04T04:28:46;2.45;;;2.42;;
7903;SDS011;3997;48.416;8.512;2023-02-04T04:31:13;3.45;;;3.35;;
7903;SDS011;3997;48.416;8.512;2023-02-04T04:33:39;3.33;;;3.22;;
7903;SDS011;3997;48.416;8.512;2023-02-04T04:36:06;3.78;;;3.60;;
7903;SDS011;3997;48.416;8.512;2023-02-04T04:38:32;4.18;;;4.07;;
7903;SDS011;3997;48.416;8.512;2023-02-04T04:41:00;5.05;;;4.90;;
7903;SDS011;3997;48.416;8.512;2023-02-04T04:43:26;1.70;;;1.70;;
7903;SDS011;3997;48.416;8.512;2023-02-04T04:45:53;1.73;;;1.73;;
7903;SDS011;3997;48.416;8.512;2023-02-04T04:48:19;3.00;;;2.92;;
7903;SDS011;3997;48.416;8.512;2023-02-04T04:50:47;2.28;;;2.28;;
7903;SDS011;3997;48.416;8.512;2023-02-04T04:53:13;2.67;;;2.63;;
7903;SDS011;3997;48.416;8.512;2023-02-04T04:55:40;3.03;;;2.88;;
7903;SDS011;3997;48.416;8.512;2023-02-04T04:58:08;2.60;;;2.55;;
7903;SDS011;3997;48.416;8.512;2023-02-04T05:00:34;1.92;;;1.92;;
7903;SDS011;3997;48.416;8.512;2023-02-04T05:03:00;3.08;;;3.03;;
7903;SDS011;3997;48.416;8.512;2023-02-04T05:05:27;1.60;;;1.60;;
7903;SDS011;3997;48.416;8.512;2023-02-04T05:07:53;2.47;;;2.42;;
7903;SDS011;3997;48.416;8.512;2023-02-04T05:10:20;1.15;;;0.98;;
7903;SDS011;3997;48.416;8.512;2023-02-04T05:12:46;1.30;;;1.30;;
7903;SDS011;3997;48.416;8.512;2023-02-04T05:15:14;1.98;;;1.92;;
7903;SDS011;3997;48.416;8.512;2023-02-04T05:17:40;2.30;;;2.20;;
7903;SDS011;3997;48.416;8.512;2023-02-04T05:20:07;1.13;;;1.13;;
7903;SDS011;3997;48.416;8.512;2023-02-04T05:22:34;1.60;;;1.60;;
7903;SDS011;3997;48.416;8.512;2023-02-04T05:25:00;1.90;;;1.88;;
7903;SDS011;3997;48.416;8.512;2023-02-04T05:27:27;2.05;;;2.05;;
7903;SDS011;3997;48.416;8.512;2023-02-04T05:29:53;78.35;;;4.32;;
7903;SDS011;3997;48.416;8.512;2023-02-04T05:32:21;78.28;;;4.05;;
7903;SDS011;3997;48.416;8.512;2023-02-04T05:34:47;136.40;;;5.38;;
7903;SDS011;3997;48.416;8.512;2023-02-04T05:37:14;100.43;;;3.83;;
7903;SDS011;3997;48.416;8.512;2023-02-04T05:39:41;24.00;;;3.33;;
7903;SDS011;3997;48.416;8.512;2023-02-04T05:42:07;8.13;;;2.90;;
7903;SDS011;3997;48.416;8.512;2023-02-04T05:44:34;19.63;;;3.35;;
7903;SDS011;3997;48.416;8.512;2023-02-04T05:47:00;9.50;;;3.28;;
7903;SDS011;3997;48.416;8.512;2023-02-04T05:49:28;5.93;;;3.35;;
7903;SDS011;3997;48.416;8.512;2023-02-04T05:51:54;2.83;;;2.72;;
7903;SDS011;3997;48.416;8.512;2023-02-04T05:54:21;2.38;;;2.15;;
7903;SDS011;3997;48.416;8.512;2023-02-04T05:56:47;3.10;;;2.95;;
7903;SDS011;3997;48.416;8.512;2023-02-04T05:59:15;3.88;;;3.72;;
7903;SDS011;3997;48.416;8.512;2023-02-04T06:01:42;4.10;;;3.92;;
7903;SDS011;3997;48.416;8.512;2023-02-04T06:04:08;6.32;;;5.97;;
7903;SDS011;3997;48.416;8.512;2023-02-04T06:06:36;4.45;;;4.25;;
7903;SDS011;3997;48.416;8.512;2023-02-04T06:09:03;2.83;;;2.63;;
7903;SDS011;3997;48.416;8.512;2023-02-04T06:11:29;3.75;;;3.55;;
7903;SDS011;3997;48.416;8.512;2023-02-04T06:13:55;3.90;;;3.72;;
7903;SDS011;3997;48.416;8.512;2023-02-04T06:16:22;3.13;;;2.80;;
7903;SDS011;3997;48.416;8.512;2023-02-04T06:18:48;7.82;;;3.03;;
7903;SDS011;3997;48.416;8.512;2023-02-04T06:21:15;6.15;;;3.47;;
7903;SDS011;3997;48.416;8.512;2023-02-04T06:23:43;15.85;;;2.65;;
7903;SDS011;3997;48.416;8.512;2023-02-04T06:26:09;4.60;;;4.45;;
7903;SDS011;3997;48.416;8.512;2023-02-04T06:28:36;2.63;;;2.53;;
7903;SDS011;3997;48.416;8.512;2023-02-04T06:31:02;3.47;;;3.38;;
7903;SDS011;3997;48.416;8.512;2023-02-04T06:33:29;21.05;;;20.25;;
7903;SDS011;3997;48.416;8.512;2023-02-04T06:35:55;5.30;;;5.10;;
7903;SDS011;3997;48.416;8.512;2023-02-04T06:38:21;0.88;;;0.88;;
7903;SDS011;3997;48.416;8.512;2023-02-04T06:40:49;2.28;;;2.00;;
7903;SDS011;3997;48.416;8.512;2023-02-04T06:43:17;1.55;;;1.55;;
7903;SDS011;3997;48.416;8.512;2023-02-04T06:45:44;1.90;;;1.80;;
7903;SDS011;3997;48.416;8.512;2023-02-04T06:48:10;1.80;;;1.80;;
7903;SDS011;3997;48.416;8.512;2023-02-04T06:50:37;0.93;;;0.93;;
7903;SDS011;3997;48.416;8.512;2023-02-04T06:53:03;2.95;;;2.90;;
7903;SDS011;3997;48.416;8.512;2023-02-04T06:55:30;4.35;;;4.22;;
7903;SDS011;3997;48.416;8.512;2023-02-04T06:57:58;3.28;;;3.17;;
7903;SDS011;3997;48.416;8.512;2023-02-04T07:00:24;2.65;;;2.58;;
7903;SDS011;3997;48.416;8.512;2023-02-04T07:02:50;2.80;;;2.75;;
7903;SDS011;3997;48.416;8.512;2023-02-04T07:05:17;7.28;;;7.03;;
7903;SDS011;3997;48.416;8.512;2023-02-04T07:07:43;5.13;;;5.00;;
7903;SDS011;3997;48.416;8.512;2023-02-04T07:10:10;5.43;;;5.13;;
7903;SDS011;3997;48.416;8.512;2023-02-04T07:12:37;4.00;;;3.80;;
7903;SDS011;3997;48.416;8.512;2023-02-04T07:15:05;2.58;;;2.47;;
7903;SDS011;3997;48.416;8.512;2023-02-04T07:17:32;3.20;;;3.13;;
7903;SDS011;3997;48.416;8.512;2023-02-04T07:19:58;2.97;;;2.47;;
7903;SDS011;3997;48.416;8.512;2023-02-04T07:22:25;2.33;;;2.33;;
7903;SDS011;3997;48.416;8.512;2023-02-04T07:24:52;2.58;;;2.50;;
7903;SDS011;3997;48.416;8.512;2023-02-04T07:27:18;3.33;;;3.22;;
7903;SDS011;3997;48.416;8.512;2023-02-04T07:29:45;5.00;;;4.70;;
7903;SDS011;3997;48.416;8.512;2023-02-04T07:32:12;2.85;;;2.80;;
7903;SDS011;3997;48.416;8.512;2023-02-04T07:34:39;3.72;;;3.63;;
7903;SDS011;3997;48.416;8.512;2023-02-04T07:37:05;2.65;;;2.58;;
7903;SDS011;3997;48.416;8.512;2023-02-04T07:39:32;3.35;;;3.25;;
7903;SDS011;3997;48.416;8.512;2023-02-04T07:41:59;1.67;;;1.67;;
7903;SDS011;3997;48.416;8.512;2023-02-04T07:44:25;1.58;;;1.58;;
7903;SDS011;3997;48.416;8.512;2023-02-04T07:46:51;2.70;;;2.60;;
7903;SDS011;3997;48.416;8.512;2023-02-04T07:49:19;3.00;;;2.90;;
7903;SDS011;3997;48.416;8.512;2023-02-04T07:51:46;2.13;;;2.05;;
7903;SDS011;3997;48.416;8.512;2023-02-04T07:54:12;3.35;;;3.22;;
7903;SDS011;3997;48.416;8.512;2023-02-04T07:56:39;6.03;;;5.82;;
7903;SDS011;3997;48.416;8.512;2023-02-04T07:59:05;6.38;;;5.97;;
7903;SDS011;3997;48.416;8.512;2023-02-04T08:01:32;87.85;;;84.45;;
7903;SDS011;3997;48.416;8.512;2023-02-04T08:03:58;8.82;;;8.02;;
7903;SDS011;3997;48.416;8.512;2023-02-04T08:06:26;12.15;;;11.60;;
7903;SDS011;3997;48.416;8.512;2023-02-04T08:08:53;4.93;;;3.55;;
7903;SDS011;3997;48.416;8.512;2023-02-04T08:11:19;9.07;;;8.45;;
7903;SDS011;3997;48.416;8.512;2023-02-04T08:13:46;2.15;;;1.20;;
7903;SDS011;3997;48.416;8.512;2023-02-04T08:16:12;7.82;;;2.58;;
7903;SDS011;3997;48.416;8.512;2023-02-04T08:18:38;6.65;;;4.93;;
7903;SDS011;3997;48.416;8.512;2023-02-04T08:21:05;1.85;;;1.15;;
7903;SDS011;3997;48.416;8.512;2023-02-04T08:23:33;6.43;;;4.15;;
7903;SDS011;3997;48.416;8.512;2023-02-04T08:25:59;4.80;;;1.40;;
7903;SDS011;3997;48.416;8.512;2023-02-04T08:28:26;3.85;;;1.52;;
7903;SDS011;3997;48.416;8.512;2023-02-04T08:30:52;2.20;;;0.98;;
7903;SDS011;3997;48.416;8.512;2023-02-04T08:33:20;5.80;;;3.72;;
7903;SDS011;3997;48.416;8.512;2023-02-04T08:35:46;2.50;;;1.73;;
7903;SDS011;3997;48.416;8.512;2023-02-04T08:38:12;3.80;;;1.77;;
7903;SDS011;3997;48.416;8.512;2023-02-04T08:40:40;4.68;;;1.40;;
7903;SDS011;3997;48.416;8.512;2023-02-04T08:43:07;5.30;;;2.03;;
7903;SDS011;3997;48.416;8.512;2023-02-04T08:45:33;5.70;;;3.50;;
7903;SDS011;3997;48.416;8.512;2023-02-04T08:47:59;3.20;;;2.05;;
7903;SDS011;3997;48.416;8.512;2023-02-04T08:50:26;2.92;;;1.30;;
7903;SDS011;3997;48.416;8.512;2023-02-04T08:52:54;3.50;;;1.77;;
7903;SDS011;3997;48.416;8.512;2023-02-04T08:55:21;4.15;;;3.50;;
7903;SDS011;3997;48.416;8.512;2023-02-04T08:57:49;3.30;;;1.65;;
7903;SDS011;3997;48.416;8.512;2023-02-04T09:00:15;3.58;;;3.28;;
7903;SDS011;3997;48.416;8.512;2023-02-04T09:02:42;6.35;;;2.97;;
7903;SDS011;3997;48.416;8.512;2023-02-04T09:05:09;6.05;;;2.78;;
7903;SDS011;3997;48.416;8.512;2023-02-04T09:07:35;9.82;;;9.02;;
7903;SDS011;3997;48.416;8.512;2023-02-04T09:10:02;3.33;;;2.95;;
7903;SDS011;3997;48.416;8.512;2023-02-04T09:12:28;4.22;;;2.33;;
7903;SDS011;3997;48.416;8.512;2023-02-04T09:14:56;3.55;;;2.92;;
7903;SDS011;3997;48.416;8.512;2023-02-04T09:17:22;8.15;;;5.65;;
7903;SDS011;3997;48.416;8.512;2023-02-04T09:19:49;24.90;;;23.45;;
7903;SDS011;3997;48.416;8.512;2023-02-04T09:22:15;9.40;;;8.38;;
7903;SDS011;3997;48.416;8.512;2023-02-04T09:24:42;8.35;;;2.63;;
7903;SDS011;3997;48.416;8.512;2023-02-04T09:27:08;3.90;;;2.47;;
7903;SDS011;3997;48.416;8.512;2023-02-04T09:29:34;5.32;;;2.95;;
7903;SDS011;3997;48.416;8.512;2023-02-04T09:32:02;3.80;;;1.55;;
7903;SDS011;3997;48.416;8.512;2023-02-04T09:34:29;9.50;;;5.05;;
7903;SDS011;3997;48.416;8.512;2023-02-04T09:36:55;7.95;;;6.25;;
7903;SDS011;3997;48.416;8.512;2023-02-04T09:39:22;8.98;;;8.10;;
7903;SDS011;3997;48.416;8.512;2023-02-04T09:41:48;8.30;;;2.58;;
7903;SDS011;3997;48.416;8.512;2023-02-04T09:44:18;14.38;;;13.30;;
7903;SDS011;3997;48.416;8.512;2023-02-04T09:46:46;22.15;;;20.38;;
7903;SDS011;3997;48.416;8.512;2023-02-04T09:49:14;6.93;;;6.30;;
7903;SDS011;3997;48.416;8.512;2023-02-04T09:51:41;10.95;;;6.90;;
7903;SDS011;3997;48.416;8.512;2023-02-04T09:54:10;15.40;;;14.20;;
7903;SDS011;3997;48.416;8.512;2023-02-04T09:56:37;7.50;;;5.88;;
7903;SDS011;3997;48.416;8.512;2023-02-04T09:59:05;41.47;;;39.22;;
7903;SDS011;3997;48.416;8.512;2023-02-04T10:01:34;10.38;;;5.47;;
7903;SDS011;3997;48.416;8.512;2023-02-04T10:04:01;10.30;;;3.30;;
7903;SDS011;3997;48.416;8.512;2023-02-04T10:06:29;7.78;;;2.88;;
7903;SDS011;3997;48.416;8.512;2023-02-04T10:08:55;13.38;;;4.25;;
7903;SDS011;3997;48.416;8.512;2023-02-04T10:11:22;9.05;;;4.75;;
7903;SDS011;3997;48.416;8.512;2023-02-04T10:13:51;11.57;;;10.55;;
7903;SDS011;3997;48.416;8.512;2023-02-04T10:16:19;7.25;;;4.93;;
7903;SDS011;3997;48.416;8.512;2023-02-04T10:18:46;6.95;;;6.13;;
7903;SDS011;3997;48.416;8.512;2023-02-04T10:21:14;8.05;;;6.55;;
7903;SDS011;3997;48.416;8.512;2023-02-04T10:23:43;6.05;;;2.33;;
7903;SDS011;3997;48.416;8.512;2023-02-04T10:26:10;13.10;;;12.02;;
7903;SDS011;3997;48.416;8.512;2023-02-04T10:28:37;9.32;;;3.25;;
7903;SDS011;3997;48.416;8.512;2023-02-04T10:31:04;8.55;;;3.17;;
7903;SDS011;3997;48.416;8.512;2023-02-04T10:33:32;10.60;;;2.67;;
7903;SDS011;3997;48.416;8.512;2023-02-04T10:36:01;5.72;;;2.00;;
7903;SDS011;3997;48.416;8.512;2023-02-04T10:38:28;194.65;;;185.65;;
7903;SDS011;3997;48.416;8.512;2023-02-04T10:41:02;30.42;;;28.65;;
7903;SDS011;3997;48.416;8.512;2023-02-04T10:43:29;18.23;;;16.80;;
7903;SDS011;3997;48.416;8.512;2023-02-04T10:45:56;22.65;;;21.08;;
7903;SDS011;3997;48.416;8.512;2023-02-04T10:48:23;17.10;;;15.82;;
7903;SDS011;3997;48.416;8.512;2023-02-04T10:50:50;14.60;;;13.57;;
7903;SDS011;3997;48.416;8.512;2023-02-04T10:53:17;22.10;;;20.25;;
7903;SDS011;3997;48.416;8.512;2023-02-04T10:56:03;11.60;;;10.60;;
7903;SDS011;3997;48.416;8.512;2023-02-04T10:58:29;7.45;;;5.72;;
7903;SDS011;3997;48.416;8.512;2023-02-04T11:00:56;20.33;;;18.83;;
7903;SDS011;3997;48.416;8.512;2023-02-04T11:03:23;10.43;;;7.65;;
7903;SDS011;3997;48.416;8.512;2023-02-04T11:05:50;13.50;;;12.18;;
7903;SDS011;3997;48.416;8.512;2023-02-04T11:08:19;11.23;;;6.95;;
7903;SDS011;3997;48.416;8.512;2023-02-04T11:10:48;11.50;;;9.93;;
7903;SDS011;3997;48.416;8.512;2023-02-04T11:13:21;8.55;;;4.78;;
7903;SDS011;3997;48.416;8.512;2023-02-04T11:15:48;13.13;;;4.75;;
7903;SDS011;3997;48.416;8.512;2023-02-04T11:18:24;9.38;;;8.52;;
7903;SDS011;3997;48.416;8.512;2023-02-04T11:20:52;6.38;;;3.30;;
7903;SDS011;3997;48.416;8.512;2023-02-04T11:26:04;5.00;;;1.90;;
7903;SDS011;3997;48.416;8.512;2023-02-04T11:28:39;7.97;;;7.20;;
7903;SDS011;3997;48.416;8.512;2023-02-04T11:31:12;8.52;;;5.93;;
7903;SDS011;3997;48.416;8.512;2023-02-04T11:33:39;5.22;;;4.80;;
7903;SDS011;3997;48.416;8.512;2023-02-04T11:36:07;15.95;;;14.75;;
7903;SDS011;3997;48.416;8.512;2023-02-04T11:38:35;14.45;;;12.93;;
7903;SDS011;3997;48.416;8.512;2023-02-04T11:41:03;15.52;;;14.07;;
7903;SDS011;3997;48.416;8.512;2023-02-04T11:43:31;20.42;;;19.13;;
7903;SDS011;3997;48.416;8.512;2023-02-04T11:46:03;181.65;;;173.70;;
7903;SDS011;3997;48.416;8.512;2023-02-04T11:48:30;19.17;;;17.92;;
7903;SDS011;3997;48.416;8.512;2023-02-04T11:50:57;5.45;;;4.95;;
7903;SDS011;3997;48.416;8.512;2023-02-04T11:53:27;28.55;;;26.65;;
7903;SDS011;3997;48.416;8.512;2023-02-04T11:55:54;25.55;;;24.15;;
7903;SDS011;3997;48.416;8.512;2023-02-04T11:58:20;24.35;;;22.88;;
7903;SDS011;3997;48.416;8.512;2023-02-04T12:00:50;28.30;;;26.25;;
7903;SDS011;3997;48.416;8.512;2023-02-04T12:03:20;30.55;;;28.55;;
7903;SDS011;3997;48.416;8.512;2023-02-04T12:05:47;16.08;;;14.93;;
7903;SDS011;3997;48.416;8.512;2023-02-04T12:08:23;35.35;;;33.33;;
7903;SDS011;3997;48.416;8.512;2023-02-04T12:10:57;32.00;;;30.08;;
7903;SDS011;3997;48.416;8.512;2023-02-04T12:13:24;36.85;;;34.97;;
7903;SDS011;3997;48.416;8.512;2023-02-04T12:15:51;55.38;;;52.58;;
7903;SDS011;3997;48.416;8.512;2023-02-04T12:18:20;46.85;;;44.45;;
7903;SDS011;3997;48.416;8.512;2023-02-04T12:20:47;84.43;;;80.55;;
7903;SDS011;3997;48.416;8.512;2023-02-04T12:23:13;187.52;;;178.43;;
7903;SDS011;3997;48.416;8.512;2023-02-04T12:25:40;88.55;;;84.45;;
7903;SDS011;3997;48.416;8.512;2023-02-04T12:28:06;37.45;;;35.38;;
7903;SDS011;3997;48.416;8.512;2023-02-04T12:30:32;27.05;;;25.42;;
7903;SDS011;3997;48.416;8.512;2023-02-04T12:33:00;40.15;;;38.00;;
7903;SDS011;3997;48.416;8.512;2023-02-04T12:35:29;59.22;;;56.45;;
7903;SDS011;3997;48.416;8.512;2023-02-04T12:37:55;29.88;;;28.20;;
7903;SDS011;3997;48.416;8.512;2023-02-04T12:40:22;81.43;;;77.55;;
7903;SDS011;3997;48.416;8.512;2023-02-04T12:42:48;35.00;;;33.05;;
7903;SDS011;3997;48.416;8.512;2023-02-04T12:45:15;34.88;;;32.95;;
7903;SDS011;3997;48.416;8.512;2023-02-04T12:47:42;49.78;;;47.25;;
7903;SDS011;3997;48.416;8.512;2023-02-04T12:50:09;34.60;;;32.17;;
7903;SDS011;3997;48.416;8.512;2023-02-04T12:52:37;98.13;;;93.68;;
7903;SDS011;3997;48.416;8.512;2023-02-04T12:55:04;37.67;;;35.55;;
7903;SDS011;3997;48.416;8.512;2023-02-04T12:57:31;52.50;;;48.03;;
7903;SDS011;3997;48.416;8.512;2023-02-04T12:59:58;43.47;;;41.35;;
7903;SDS011;3997;48.416;8.512;2023-02-04T13:02:25;26.50;;;24.77;;
7903;SDS011;3997;48.416;8.512;2023-02-04T13:04:52;117.78;;;112.05;;
7903;SDS011;3997;48.416;8.512;2023-02-04T13:07:18;34.35;;;32.38;;
7903;SDS011;3997;48.416;8.512;2023-02-04T13:09:47;63.78;;;60.38;;
7903;SDS011;3997;48.416;8.512;2023-02-04T13:12:13;292.58;;;279.02;;
7903;SDS011;3997;48.416;8.512;2023-02-04T13:14:39;38.83;;;36.90;;
7903;SDS011;3997;48.416;8.512;2023-02-04T13:17:06;8.00;;;5.78;;
7903;SDS011;3997;48.416;8.512;2023-02-04T13:19:32;18.58;;;17.33;;
7903;SDS011;3997;48.416;8.512;2023-02-04T13:21:59;90.72;;;86.63;;
7903;SDS011;3997;48.416;8.512;2023-02-04T13:24:25;69.78;;;66.43;;
7903;SDS011;3997;48.416;8.512;2023-02-04T13:26:53;33.40;;;31.45;;
7903;SDS011;3997;48.416;8.512;2023-02-04T13:29:19;141.15;;;134.65;;
7903;SDS011;3997;48.416;8.512;2023-02-04T13:31:46;50.17;;;47.80;;
7903;SDS011;3997;48.416;8.512;2023-02-04T13:34:13;97.25;;;92.97;;
7903;SDS011;3997;48.416;8.512;2023-02-04T13:36:39;140.88;;;133.98;;
7903;SDS011;3997;48.416;8.512;2023-02-04T13:39:07;53.67;;;50.97;;
7903;SDS011;3997;48.416;8.512;2023-02-04T13:41:34;5.88;;;5.07;;
7903;SDS011;3997;48.416;8.512;2023-02-04T13:44:02;83.88;;;80.20;;
7903;SDS011;3997;48.416;8.512;2023-02-04T13:46:28;77.93;;;74.43;;
7903;SDS011;3997;48.416;8.512;2023-02-04T13:48:55;107.25;;;102.70;;
7903;SDS011;3997;48.416;8.512;2023-02-04T13:51:21;94.75;;;90.28;;
7903;SDS011;3997;48.416;8.512;2023-02-04T13:53:47;87.10;;;83.45;;
7903;SDS011;3997;48.416;8.512;2023-02-04T13:56:14;158.30;;;151.80;;
7903;SDS011;3997;48.416;8.512;2023-02-04T13:58:40;131.57;;;126.28;;
7903;SDS011;3997;48.416;8.512;2023-02-04T14:01:09;106.18;;;101.72;;
7903;SDS011;3997;48.416;8.512;2023-02-04T14:03:36;145.43;;;139.25;;
7903;SDS011;3997;48.416;8.512;2023-02-04T14:06:02;114.35;;;109.72;;
7903;SDS011;3997;48.416;8.512;2023-02-04T14:08:29;177.50;;;170.40;;
7903;SDS011;3997;48.416;8.512;2023-02-04T14:10:55;151.10;;;145.10;;
7903;SDS011;3997;48.416;8.512;2023-02-04T14:13:22;163.45;;;156.90;;
7903;SDS011;3997;48.416;8.512;2023-02-04T14:15:48;216.27;;;207.32;;
7903;SDS011;3997;48.416;8.512;2023-02-04T14:18:16;143.65;;;137.70;;
7903;SDS011;3997;48.416;8.512;2023-02-04T14:20:42;91.45;;;87.55;;
7903;SDS011;3997;48.416;8.512;2023-02-04T14:23:09;89.95;;;86.13;;
7903;SDS011;3997;48.416;8.512;2023-02-04T14:25:37;121.32;;;116.28;;
7903;SDS011;3997;48.416;8.512;2023-02-04T14:28:03;82.40;;;78.57;;
7903;SDS011;3997;48.416;8.512;2023-02-04T14:30:30;92.25;;;88.32;;
7903;SDS011;3997;48.416;8.512;2023-02-04T14:32:57;64.35;;;61.15;;
7903;SDS011;3997;48.416;8.512;2023-02-04T14:35:25;118.38;;;113.38;;
7903;SDS011;3997;48.416;8.512;2023-02-04T14:37:52;86.22;;;82.28;;
7903;SDS011;3997;48.416;8.512;2023-02-04T14:40:18;72.13;;;68.68;;
7903;SDS011;3997;48.416;8.512;2023-02-04T14:42:46;104.50;;;100.35;;
7903;SDS011;3997;48.416;8.512;2023-02-04T14:45:13;32.40;;;30.80;;
7903;SDS011;3997;48.416;8.512;2023-02-04T14:47:40;84.93;;;81.25;;
7903;SDS011;3997;48.416;8.512;2023-02-04T14:50:07;15.40;;;14.52;;
7903;SDS011;3997;48.416;8.512;2023-02-04T14:52:35;23.08;;;21.50;;
7903;SDS011;3997;48.416;8.512;2023-02-04T14:55:02;16.38;;;15.45;;
7903;SDS011;3997;48.416;8.512;2023-02-04T14:57:28;24.10;;;22.42;;
7903;SDS011;3997;48.416;8.512;2023-02-04T14:59:55;24.50;;;22.60;;
7903;SDS011;3997;48.416;8.512;2023-02-04T15:02:21;16.85;;;15.88;;
7903;SDS011;3997;48.416;8.512;2023-02-04T15:04:48;39.53;;;37.60;;
7903;SDS011;3997;48.416;8.512;2023-02-04T15:07:14;23.45;;;21.85;;